Time;durP1;ratioP1;P1;durP2;ratioP2;P2;SDS_P1;SDS_P2;PMS_P1;PMS_P2;Temp;Humidity;BMP_temperature;BMP_pressure;BME280_temperature;BME280_humidity;BME280_pressure;Samples;Min_cycle;Max_cycle;Signal;HPM_P1;HPM_P2
2022/06/16 00:01:42;;;;;;;8.40;4.90;;;14.40;99.90;;;;;;5008534;28;20022;-58
2022/06/16 00:04:07;;;;;;;7.13;4.75;;;14.30;99.90;;;;;;5012992;28;20018;-58
2022/06/16 00:06:33;;;;;;;9.40;4.13;;;14.20;99.90;;;;;;5012920;28;20033;-57
2022/06/16 00:08:59;;;;;;;6.85;4.15;;;14.10;99.90;;;;;;5010927;28;20030;-57
2022/06/16 00:11:25;;;;;;;9.63;4.03;;;14.10;99.90;;;;;;5011639;28;20029;-57
2022/06/16 00:13:54;;;;;;;7.18;4.13;;;14.10;99.90;;;;;;5010950;28;20030;-58
2022/06/16 00:16:23;;;;;;;5.25;3.30;;;14.00;99.90;;;;;;5011157;28;20021;-60
2022/06/16 00:18:50;;;;;;;8.88;3.60;;;13.90;99.90;;;;;;5011032;28;20490;-57
2022/06/16 00:21:17;;;;;;;7.70;3.95;;;14.00;99.90;;;;;;5012542;28;20385;-57
2022/06/16 00:23:43;;;;;;;5.93;3.90;;;14.00;99.90;;;;;;5010051;28;20029;-58
2022/06/16 00:26:15;;;;;;;7.53;4.15;;;14.00;99.90;;;;;;5008098;28;20076;-58
2022/06/16 00:28:41;;;;;;;8.23;4.00;;;13.90;99.90;;;;;;5010934;28;20030;-58
2022/06/16 00:31:09;;;;;;;9.57;4.22;;;13.80;99.90;;;;;;5012071;28;20061;-57
2022/06/16 00:33:34;;;;;;;9.57;4.85;;;13.70;99.90;;;;;;5012310;28;20022;-58
2022/06/16 00:36:01;;;;;;;6.95;3.55;;;13.70;99.90;;;;;;5009541;28;20092;-58
2022/06/16 00:38:33;;;;;;;5.80;3.75;;;13.70;99.90;;;;;;5012535;28;20102;-57
2022/06/16 00:41:05;;;;;;;5.03;3.25;;;13.60;99.90;;;;;;5004015;28;20041;-57
2022/06/16 00:43:31;;;;;;;6.63;4.05;;;13.50;99.90;;;;;;5011702;28;20038;-57
2022/06/16 00:46:01;;;;;;;9.60;4.28;;;13.40;99.90;;;;;;5009004;28;20378;-57
2022/06/16 00:49:05;;;;;;;9.20;3.83;;;13.40;99.90;;;;;;5009012;28;20124;-57
2022/06/16 00:51:48;;;;;;;6.65;3.72;;;13.40;99.90;;;;;;4975493;28;20111;-57
2022/06/16 00:54:34;;;;;;;5.18;3.30;;;13.40;99.90;;;;;;5004287;28;20497;-58
2022/06/16 00:57:06;;;;;;;6.80;3.97;;;13.40;99.90;;;;;;5009008;28;20836;-58
2022/06/16 00:59:32;;;;;;;5.50;3.45;;;13.30;99.90;;;;;;5009602;28;20033;-58
2022/06/16 01:01:59;;;;;;;8.55;4.10;;;13.30;99.90;;;;;;5010055;28;20034;-57
2022/06/16 01:07:12;;;;;;;6.00;3.83;;;13.20;99.90;;;;;;5005840;28;20045;-58
2022/06/16 01:09:41;;;;;;;10.23;4.03;;;13.30;99.90;;;;;;5011857;28;20025;-58
2022/06/16 01:15:13;;;;;;;7.28;3.45;;;13.30;99.90;;;;;;5001119;28;20072;-58
2022/06/16 01:18:07;;;;;;;7.57;3.78;;;13.20;99.90;;;;;;5011724;28;20165;-57
2022/06/16 01:20:39;;;;;;;4.85;3.72;;;13.20;99.90;;;;;;5022422;28;20030;-57
2022/06/16 01:23:22;;;;;;;8.60;3.70;;;13.20;99.90;;;;;;5001840;28;20037;-57
2022/06/16 01:26:16;;;;;;;6.95;4.00;;;13.10;99.90;;;;;;5008963;28;20503;-57
2022/06/16 01:28:47;;;;;;;7.38;4.32;;;13.10;99.90;;;;;;5001107;28;20366;-58
2022/06/16 01:31:24;;;;;;;6.38;4.20;;;13.00;99.90;;;;;;5010334;28;20068;-57
2022/06/16 01:34:04;;;;;;;7.32;4.63;;;13.00;99.90;;;;;;5008604;28;20068;-57
2022/06/16 01:36:38;;;;;;;6.80;4.50;;;12.90;99.90;;;;;;5009300;28;20018;-57
2022/06/16 01:39:25;;;;;;;6.32;4.07;;;12.90;99.90;;;;;;5002378;28;20030;-58
2022/06/16 01:42:16;;;;;;;7.82;4.20;;;12.90;99.90;;;;;;5008045;28;20120;-57
2022/06/16 01:44:53;;;;;;;8.93;4.40;;;13.00;99.90;;;;;;5008189;28;20397;-57
2022/06/16 01:47:22;;;;;;;6.53;5.35;;;12.90;99.90;;;;;;5005460;28;20046;-57
2022/06/16 01:49:53;;;;;;;13.10;5.13;;;12.90;99.90;;;;;;5008987;28;20025;-57
2022/06/16 01:52:29;;;;;;;8.07;5.15;;;12.90;99.90;;;;;;5010796;28;20627;-56
2022/06/16 01:55:00;;;;;;;9.43;5.13;;;12.80;99.90;;;;;;5000706;28;20026;-58
2022/06/16 01:57:52;;;;;;;9.52;6.13;;;12.70;99.90;;;;;;5007053;28;20129;-58
2022/06/16 02:00:24;;;;;;;15.57;5.55;;;12.70;99.90;;;;;;4930146;29;20043;-58
2022/06/16 02:03:06;;;;;;;8.35;5.65;;;12.60;99.90;;;;;;4926642;29;20059;-56
2022/06/16 02:05:58;;;;;;;10.63;6.50;;;12.70;99.90;;;;;;4930591;29;20535;-57
2022/06/16 02:08:45;;;;;;;11.13;6.13;;;12.60;99.90;;;;;;4929575;29;20047;-57
2022/06/16 02:11:16;;;;;;;9.88;5.75;;;12.60;99.90;;;;;;4926158;29;20031;-57
2022/06/16 02:14:00;;;;;;;8.10;5.60;;;12.50;99.90;;;;;;4927796;29;20042;-57
2022/06/16 02:16:31;;;;;;;7.03;5.00;;;12.50;99.90;;;;;;4930351;29;20122;-57
2022/06/16 02:19:00;;;;;;;5.38;4.50;;;12.50;99.90;;;;;;4928899;29;20063;-57
2022/06/16 02:21:39;;;;;;;12.02;5.13;;;12.50;99.90;;;;;;4930898;29;20032;-57
2022/06/16 02:24:10;;;;;;;8.63;5.43;;;12.50;99.90;;;;;;4924549;29;20051;-57
2022/06/16 02:26:37;;;;;;;10.88;5.43;;;12.50;99.90;;;;;;4914174;29;20036;-58
2022/06/16 02:29:33;;;;;;;11.30;6.40;;;12.50;99.90;;;;;;4928506;29;20066;-57
2022/06/16 02:32:37;;;;;;;9.50;5.25;;;12.50;99.90;;;;;;4928097;29;20440;-57
2022/06/16 02:35:41;;;;;;;6.40;5.40;;;12.50;99.90;;;;;;4928742;29;20024;-56
2022/06/16 02:38:29;;;;;;;7.50;4.97;;;12.50;99.90;;;;;;4993427;28;20033;-57
2022/06/16 02:41:04;;;;;;;7.50;4.95;;;12.50;99.90;;;;;;4996186;28;20022;-58
2022/06/16 02:43:33;;;;;;;7.20;4.95;;;12.40;99.90;;;;;;5008719;28;20054;-58
2022/06/16 02:46:07;;;;;;;6.88;4.47;;;12.30;99.90;;;;;;5008221;28;20021;-60
2022/06/16 02:48:51;;;;;;;8.30;3.85;;;12.20;99.90;;;;;;5024004;28;20037;-58
2022/06/16 02:51:33;;;;;;;8.02;4.30;;;12.20;99.90;;;;;;5003492;28;20033;-57
2022/06/16 02:54:10;;;;;;;8.13;5.13;;;12.30;99.90;;;;;;5006559;28;20026;-58
2022/06/16 02:56:55;;;;;;;8.77;4.82;;;12.20;99.90;;;;;;5001831;28;20050;-61
2022/06/16 02:59:45;;;;;;;6.18;4.03;;;12.30;99.90;;;;;;5009666;28;20021;-57
2022/06/16 03:02:16;;;;;;;6.07;3.92;;;12.30;99.90;;;;;;5002598;28;20505;-61
2022/06/16 03:04:45;;;;;;;6.03;3.97;;;12.30;99.90;;;;;;5001617;28;20017;-57
2022/06/16 03:07:12;;;;;;;8.40;4.32;;;12.30;99.90;;;;;;5009750;28;20038;-57
2022/06/16 03:09:38;;;;;;;6.25;4.22;;;12.20;99.90;;;;;;5009397;28;20367;-57
2022/06/16 03:12:05;;;;;;;8.20;4.68;;;12.10;99.90;;;;;;5022221;28;20045;-57
2022/06/16 03:14:31;;;;;;;4.65;3.83;;;12.10;99.90;;;;;;5008755;28;20030;-57
2022/06/16 03:16:57;;;;;;;7.10;4.07;;;12.10;99.90;;;;;;5005977;28;20080;-58
2022/06/16 03:19:23;;;;;;;7.13;4.18;;;12.10;99.90;;;;;;5008295;28;20026;-58
2022/06/16 03:21:49;;;;;;;10.45;3.83;;;12.10;99.90;;;;;;5007620;28;20025;-57
2022/06/16 03:24:16;;;;;;;6.50;4.20;;;12.10;99.90;;;;;;5007878;28;20032;-58
2022/06/16 03:26:42;;;;;;;5.85;4.28;;;12.10;99.90;;;;;;5006938;28;20393;-58
2022/06/16 03:29:08;;;;;;;6.63;4.00;;;12.10;99.90;;;;;;5009719;28;20022;-57
2022/06/16 03:31:34;;;;;;;6.13;4.07;;;12.00;99.90;;;;;;5008827;28;20060;-58
2022/06/16 03:34:00;;;;;;;6.05;4.53;;;12.00;99.90;;;;;;5007728;28;20061;-58
2022/06/16 03:36:26;;;;;;;6.50;5.00;;;11.90;99.90;;;;;;5009443;28;20026;-57
2022/06/16 03:38:52;;;;;;;5.68;4.43;;;11.90;99.90;;;;;;5006753;28;20030;-57
2022/06/16 03:41:18;;;;;;;7.35;4.28;;;11.90;99.90;;;;;;5000181;28;20017;-58
2022/06/16 03:43:44;;;;;;;9.90;5.07;;;11.90;99.90;;;;;;5005569;28;20045;-58
2022/06/16 03:46:11;;;;;;;8.20;5.15;;;11.80;99.90;;;;;;5008590;28;20034;-58
2022/06/16 03:48:38;;;;;;;8.35;4.18;;;11.70;99.90;;;;;;5008798;28;20378;-57
2022/06/16 03:51:08;;;;;;;5.90;4.13;;;11.70;99.90;;;;;;5007710;28;20061;-58
2022/06/16 03:53:35;;;;;;;8.90;4.85;;;11.70;99.90;;;;;;5001334;28;20497;-58
2022/06/16 03:56:02;;;;;;;9.20;5.00;;;11.70;99.90;;;;;;5006272;28;20040;-58
2022/06/16 03:58:28;;;;;;;8.63;4.90;;;11.70;99.90;;;;;;5009293;28;20030;-57
2022/06/16 04:00:54;;;;;;;5.95;4.25;;;11.70;99.90;;;;;;5007291;28;20184;-57
2022/06/16 04:06:04;;;;;;;5.82;5.22;;;11.60;99.90;;;;;;5005395;28;20496;-57
2022/06/16 04:08:30;;;;;;;5.90;4.00;;;11.50;99.90;;;;;;5008778;28;20025;-57
2022/06/16 04:10:56;;;;;;;5.70;4.03;;;11.50;99.90;;;;;;5008277;28;20033;-57
2022/06/16 04:13:22;;;;;;;7.70;4.45;;;11.40;99.90;;;;;;5012018;28;20454;-57
2022/06/16 04:15:50;;;;;;;7.90;4.40;;;11.40;99.90;;;;;;5005630;28;20057;-56
2022/06/16 04:18:19;;;;;;;8.77;4.57;;;11.40;99.90;;;;;;5005668;28;20040;-57
2022/06/16 04:20:46;;;;;;;5.30;3.60;;;11.40;99.90;;;;;;5010052;28;20022;-57
2022/06/16 04:23:13;;;;;;;6.93;4.15;;;11.40;99.90;;;;;;5010659;28;20037;-58
2022/06/16 04:25:39;;;;;;;4.32;3.28;;;11.40;99.90;;;;;;5012670;28;20057;-57
2022/06/16 04:28:06;;;;;;;4.28;3.53;;;11.40;99.90;;;;;;5010174;28;20099;-58
2022/06/16 04:30:33;;;;;;;6.47;4.20;;;11.40;99.90;;;;;;5009883;28;20029;-58
2022/06/16 04:32:59;;;;;;;5.95;3.47;;;11.50;99.90;;;;;;5007265;28;20048;-58
2022/06/16 04:35:26;;;;;;;5.18;4.05;;;11.60;99.90;;;;;;5003498;28;20454;-58
2022/06/16 04:37:53;;;;;;;6.30;4.20;;;11.70;99.90;;;;;;5003688;28;20490;-57
2022/06/16 04:40:19;;;;;;;9.43;4.18;;;11.80;99.90;;;;;;5012204;28;20466;-57
2022/06/16 04:42:45;;;;;;;7.10;4.32;;;11.90;99.90;;;;;;5009793;28;20046;-58
2022/06/16 04:45:11;;;;;;;7.85;3.85;;;12.00;99.90;;;;;;5011730;28;20018;-58
2022/06/16 04:47:38;;;;;;;5.05;3.58;;;12.00;99.90;;;;;;4999141;28;20099;-58
2022/06/16 04:50:06;;;;;;;7.45;4.60;;;12.10;99.90;;;;;;5012085;28;20018;-59
2022/06/16 04:52:32;;;;;;;11.00;4.80;;;12.10;99.90;;;;;;5011916;28;20490;-58
2022/06/16 04:54:58;;;;;;;10.82;4.60;;;12.20;99.90;;;;;;5010317;28;20026;-58
2022/06/16 04:57:24;;;;;;;7.68;3.72;;;12.20;99.90;;;;;;5010375;28;20032;-58
2022/06/16 04:59:50;;;;;;;6.03;4.28;;;12.30;99.90;;;;;;5003545;28;20410;-58
2022/06/16 05:02:16;;;;;;;7.15;4.28;;;12.30;99.90;;;;;;5009470;28;20108;-58
2022/06/16 05:04:44;;;;;;;7.72;4.15;;;12.30;99.90;;;;;;5010302;28;20025;-59
2022/06/16 05:07:11;;;;;;;4.45;3.80;;;12.30;99.90;;;;;;5011889;28;20045;-57
2022/06/16 05:09:37;;;;;;;6.47;4.25;;;12.40;99.90;;;;;;5006859;28;20024;-58
2022/06/16 05:12:03;;;;;;;8.40;5.47;;;12.40;99.90;;;;;;5006054;28;20030;-58
2022/06/16 05:14:29;;;;;;;6.82;4.70;;;12.50;99.90;;;;;;5032765;28;20496;-57
2022/06/16 05:16:55;;;;;;;8.18;4.95;;;12.60;99.90;;;;;;5005038;28;20030;-58
2022/06/16 05:19:23;;;;;;;6.55;4.43;;;12.70;99.90;;;;;;5011119;28;20487;-57
2022/06/16 05:21:48;;;;;;;8.18;4.72;;;12.80;99.90;;;;;;5008287;28;20026;-57
2022/06/16 05:24:14;;;;;;;9.13;4.88;;;12.80;99.90;;;;;;5010887;28;20026;-58
2022/06/16 05:26:40;;;;;;;8.60;5.28;;;12.90;99.90;;;;;;5010400;28;20038;-58
2022/06/16 05:29:06;;;;;;;7.00;4.90;;;13.00;99.90;;;;;;5009527;28;20390;-58
2022/06/16 05:31:34;;;;;;;7.50;4.85;;;13.10;99.90;;;;;;5010911;28;20030;-58
2022/06/16 05:34:00;;;;;;;9.10;4.70;;;13.20;99.90;;;;;;5009184;28;20091;-58
2022/06/16 05:36:26;;;;;;;11.00;5.20;;;13.20;99.90;;;;;;5009448;28;20052;-58
2022/06/16 05:38:55;;;;;;;9.15;5.25;;;13.30;99.90;;;;;;5008594;28;20490;-57
2022/06/16 05:41:21;;;;;;;8.85;5.63;;;13.40;99.90;;;;;;5009398;28;20033;-57
2022/06/16 05:43:47;;;;;;;9.43;5.43;;;13.50;99.90;;;;;;5007701;28;20050;-57
2022/06/16 05:46:20;;;;;;;7.57;5.07;;;13.60;99.90;;;;;;5010198;28;20362;-58
2022/06/16 05:48:50;;;;;;;10.52;6.53;;;13.70;99.90;;;;;;5008889;28;20030;-57
2022/06/16 05:51:16;;;;;;;14.10;6.55;;;13.70;99.90;;;;;;5007617;28;20018;-57
2022/06/16 05:53:43;;;;;;;17.52;6.78;;;13.70;99.90;;;;;;5004561;28;20040;-58
2022/06/16 05:56:09;;;;;;;11.98;6.45;;;13.80;99.90;;;;;;5007325;28;20096;-57
2022/06/16 05:58:35;;;;;;;7.93;5.68;;;14.00;99.90;;;;;;5005714;28;20026;-57
2022/06/16 06:01:01;;;;;;;13.52;6.13;;;14.00;99.90;;;;;;4998896;28;20018;-57
2022/06/16 06:03:28;;;;;;;14.35;5.10;;;14.10;99.90;;;;;;5010392;28;20026;-57
2022/06/16 06:05:53;;;;;;;9.18;5.60;;;14.10;99.90;;;;;;5007931;28;20034;-58
2022/06/16 06:16:40;;;;;;;9.27;6.00;;;14.20;99.90;;;;;;4998372;28;20163;-58
2022/06/16 06:19:23;;;;;;;8.32;5.30;;;14.20;99.90;;;;;;4996136;28;20045;-56
2022/06/16 06:21:58;;;;;;;10.07;6.28;;;14.20;99.90;;;;;;5008002;28;20457;-58
2022/06/16 06:24:26;;;;;;;13.55;5.95;;;14.20;99.90;;;;;;5005423;28;20030;-57
2022/06/16 06:26:53;;;;;;;10.38;5.75;;;14.30;99.90;;;;;;5001315;28;20077;-58
2022/06/16 06:29:19;;;;;;;7.75;5.07;;;14.40;99.90;;;;;;5008972;28;20029;-57
2022/06/16 06:31:45;;;;;;;13.77;8.18;;;14.40;99.90;;;;;;5025292;28;20034;-57
2022/06/16 06:34:11;;;;;;;12.43;6.82;;;14.50;99.90;;;;;;5000684;28;20026;-56
2022/06/16 06:36:37;;;;;;;15.18;7.10;;;14.60;99.90;;;;;;5003630;28;20036;-57
2022/06/16 06:39:03;;;;;;;10.02;6.10;;;14.60;99.90;;;;;;5007335;28;20036;-57
2022/06/16 06:41:29;;;;;;;9.88;5.88;;;14.70;99.90;;;;;;5008295;28;20076;-58
2022/06/16 06:43:54;;;;;;;7.18;5.70;;;14.80;99.90;;;;;;5003032;28;20041;-56
2022/06/16 06:46:20;;;;;;;9.38;6.28;;;14.90;99.90;;;;;;5005936;28;20033;-57
2022/06/16 06:48:46;;;;;;;13.93;7.47;;;15.00;99.90;;;;;;5008017;28;20041;-59
2022/06/16 06:51:13;;;;;;;10.15;6.68;;;15.10;99.90;;;;;;5008862;28;20034;-57
2022/06/16 06:53:38;;;;;;;9.93;6.15;;;15.20;99.90;;;;;;5007720;28;20017;-60
2022/06/16 06:56:04;;;;;;;10.57;5.75;;;15.30;99.90;;;;;;5007425;28;20069;-57
2022/06/16 06:58:32;;;;;;;10.98;5.60;;;15.30;99.90;;;;;;5005318;28;20042;-57
2022/06/16 07:01:01;;;;;;;9.60;5.28;;;15.40;99.90;;;;;;5007542;28;20022;-57
2022/06/16 07:03:28;;;;;;;10.25;6.88;;;15.40;99.90;;;;;;5004928;28;20032;-57
2022/06/16 07:05:54;;;;;;;10.25;5.90;;;15.60;99.90;;;;;;5007657;28;20037;-58
2022/06/16 07:08:20;;;;;;;13.68;5.32;;;15.60;99.90;;;;;;5008051;28;20030;-57
2022/06/16 07:10:47;;;;;;;9.40;4.90;;;15.70;99.90;;;;;;5012895;28;20507;-56
2022/06/16 07:13:13;;;;;;;8.75;4.93;;;15.80;99.90;;;;;;4995891;28;20033;-57
2022/06/16 07:15:39;;;;;;;13.93;4.97;;;15.90;99.90;;;;;;5009588;28;20056;-57
2022/06/16 07:18:06;;;;;;;12.50;5.35;;;15.90;99.90;;;;;;5006859;28;20403;-58
2022/06/16 07:20:33;;;;;;;12.48;5.00;;;16.00;99.90;;;;;;4999800;28;20065;-57
2022/06/16 07:22:59;;;;;;;8.13;4.55;;;16.10;99.90;;;;;;4999189;28;20040;-57
2022/06/16 07:25:25;;;;;;;9.43;4.28;;;16.10;99.90;;;;;;5006954;28;20026;-58
2022/06/16 07:27:53;;;;;;;7.15;4.32;;;16.20;99.90;;;;;;4998571;28;20065;-58
2022/06/16 07:30:21;;;;;;;6.65;3.90;;;16.30;99.90;;;;;;4999869;28;20025;-57
2022/06/16 07:32:48;;;;;;;6.85;3.38;;;16.50;99.90;;;;;;5000101;28;20022;-58
2022/06/16 07:35:17;;;;;;;6.25;2.85;;;16.50;99.90;;;;;;4999496;28;20029;-58
2022/06/16 07:37:43;;;;;;;8.70;3.17;;;16.60;99.90;;;;;;5002114;28;20014;-55
2022/06/16 07:40:10;;;;;;;9.40;3.00;;;16.70;99.90;;;;;;5002473;28;20389;-57
2022/06/16 07:42:36;;;;;;;6.53;2.60;;;16.90;99.90;;;;;;5003163;28;20131;-58
2022/06/16 07:45:03;;;;;;;8.38;3.47;;;16.90;99.90;;;;;;5002160;28;20145;-58
2022/06/16 07:47:28;;;;;;;9.25;3.88;;;17.00;99.90;;;;;;5008427;28;20037;-57
2022/06/16 07:49:55;;;;;;;9.38;3.58;;;17.10;99.90;;;;;;5000841;28;20027;-58
2022/06/16 07:52:21;;;;;;;11.38;3.80;;;17.20;99.90;;;;;;5005182;28;20482;-57
2022/06/16 07:54:49;;;;;;;7.40;3.72;;;17.40;99.90;;;;;;5002877;28;20037;-57
2022/06/16 07:57:15;;;;;;;9.63;3.92;;;17.50;99.90;;;;;;5008386;28;20042;-58
2022/06/16 07:59:40;;;;;;;8.32;3.40;;;17.50;99.90;;;;;;5003479;28;20029;-57
2022/06/16 08:02:07;;;;;;;8.68;3.33;;;17.60;99.90;;;;;;5003675;28;20438;-56
2022/06/16 08:04:33;;;;;;;10.35;3.70;;;17.70;99.90;;;;;;5008931;28;20068;-57
2022/06/16 08:07:01;;;;;;;6.47;3.00;;;17.80;99.90;;;;;;5003560;28;20459;-57
2022/06/16 08:09:29;;;;;;;9.73;3.45;;;18.00;99.90;;;;;;5008945;28;20061;-57
2022/06/16 08:12:04;;;;;;;5.38;3.58;;;18.20;99.90;;;;;;4997227;28;20673;-57
2022/06/16 08:14:31;;;;;;;6.10;3.08;;;18.40;99.90;;;;;;5007348;28;20018;-59
2022/06/16 08:16:58;;;;;;;7.45;3.08;;;18.40;99.90;;;;;;5003314;28;20088;-58
2022/06/16 08:19:24;;;;;;;8.98;3.13;;;18.50;99.90;;;;;;5003212;28;20739;-58
2022/06/16 08:21:50;;;;;;;7.63;3.55;;;18.50;99.90;;;;;;5001889;28;20037;-57
2022/06/16 08:24:17;;;;;;;6.22;3.00;;;18.70;99.90;;;;;;5000642;28;20129;-57
2022/06/16 08:26:43;;;;;;;4.75;2.80;;;18.80;99.90;;;;;;5002354;28;20033;-57
2022/06/16 08:29:14;;;;;;;6.55;2.60;;;19.00;99.90;;;;;;5003402;28;20087;-57
2022/06/16 08:31:39;;;;;;;8.82;2.80;;;19.20;99.90;;;;;;5006381;28;20478;-58
2022/06/16 08:34:06;;;;;;;4.35;2.53;;;19.30;99.90;;;;;;5000348;28;20088;-58
2022/06/16 08:36:32;;;;;;;6.80;2.63;;;19.20;99.90;;;;;;5000474;28;20026;-58
2022/06/16 08:38:58;;;;;;;10.23;2.72;;;19.20;99.90;;;;;;5002883;28;20477;-56
2022/06/16 08:41:51;;;;;;;7.97;2.80;;;19.20;99.90;;;;;;5004147;28;20037;-58
2022/06/16 08:44:49;;;;;;;5.38;2.78;;;19.40;99.90;;;;;;4975575;28;20517;-58
2022/06/16 08:47:31;;;;;;;3.33;2.25;;;19.70;99.90;;;;;;5002788;28;20111;-58
2022/06/16 08:50:21;;;;;;;5.28;2.90;;;20.00;99.90;;;;;;5002575;28;20037;-58
2022/06/16 08:53:00;;;;;;;6.45;2.75;;;20.00;99.90;;;;;;5002001;28;20069;-57
2022/06/16 08:55:38;;;;;;;4.60;2.33;;;20.10;99.90;;;;;;5000078;28;20048;-57
2022/06/16 08:58:22;;;;;;;6.72;2.90;;;20.20;99.90;;;;;;4999873;28;20033;-57
2022/06/16 09:00:58;;;;;;;8.50;2.72;;;20.20;99.90;;;;;;5001117;28;20064;-59
2022/06/16 09:03:41;;;;;;;5.97;2.30;;;20.30;99.90;;;;;;5006231;28;20034;-59
2022/06/16 09:06:28;;;;;;;9.70;2.47;;;20.80;99.90;;;;;;5005152;28;20026;-58
2022/06/16 09:10:33;;;;;;;8.77;2.50;;;20.90;99.90;;;;;;5005695;28;20120;-58
2022/06/16 09:12:28;;;;;;;9.50;2.40;;;21.10;99.90;;;;;;4928497;28;20428;-58
2022/06/16 09:15:14;;;;;;;5.78;2.28;;;21.20;99.90;;;;;;4946513;29;20097;-58
2022/06/16 09:17:52;;;;;;;8.95;2.63;;;21.40;99.90;;;;;;4940438;29;20047;-58
2022/06/16 09:20:29;;;;;;;8.93;3.22;;;21.60;99.90;;;;;;4940180;29;20095;-58
2022/06/16 09:23:18;;;;;;;9.23;3.35;;;21.70;99.90;;;;;;4940899;29;20047;-58
2022/06/16 09:25:59;;;;;;;6.28;3.22;;;21.70;99.90;;;;;;4925795;29;20111;-56
2022/06/16 09:28:35;;;;;;;9.13;3.55;;;22.00;99.90;;;;;;4921810;29;20052;-57
2022/06/16 09:31:06;;;;;;;9.88;3.60;;;22.20;99.90;;;;;;4920783;29;20050;-57
2022/06/16 09:33:36;;;;;;;7.35;3.25;;;22.20;99.90;;;;;;4927620;29;20028;-58
2022/06/16 09:36:15;;;;;;;8.55;3.45;;;22.20;99.90;;;;;;4922374;29;20513;-58
2022/06/16 09:39:01;;;;;;;8.52;3.63;;;22.30;99.90;;;;;;4917437;29;21647;-58
2022/06/16 09:44:36;;;;;;;7.03;3.40;;;22.40;99.90;;;;;;4963732;28;20058;-57
2022/06/16 09:47:14;;;;;;;10.13;3.60;;;22.50;99.90;;;;;;4964969;28;20862;-58
2022/06/16 09:49:46;;;;;;;9.15;3.75;;;22.50;99.90;;;;;;4967417;28;20058;-58
2022/06/16 09:52:27;;;;;;;7.75;3.00;;;22.40;99.90;;;;;;4963813;28;20053;-58
2022/06/16 09:55:02;;;;;;;10.15;3.75;;;22.40;99.90;;;;;;4965883;28;20034;-57
2022/06/16 09:58:01;;;;;;;10.77;3.10;;;22.30;99.90;;;;;;4962295;28;20035;-57
2022/06/16 10:00:33;;;;;;;10.90;3.50;;;22.30;99.90;;;;;;4964863;28;20034;-57
2022/06/16 10:03:15;;;;;;;5.50;3.45;;;22.40;99.90;;;;;;4989260;28;20108;-57
2022/06/16 10:05:52;;;;;;;6.22;4.20;;;22.50;99.90;;;;;;5002742;28;20038;-57
2022/06/16 10:08:50;;;;;;;10.57;4.72;;;22.50;99.90;;;;;;5000962;28;20034;-58
2022/06/16 10:11:40;;;;;;;7.63;3.72;;;22.80;99.90;;;;;;5002982;28;20564;-58
2022/06/16 10:14:37;;;;;;;8.32;3.60;;;22.90;99.90;;;;;;4998995;28;20037;-58
2022/06/16 10:17:07;;;;;;;7.28;3.63;;;22.70;98.70;;;;;;4988449;28;20033;-59
2022/06/16 10:19:38;;;;;;;10.23;3.80;;;22.60;99.10;;;;;;5003662;28;20040;-58
2022/06/16 10:22:06;;;;;;;6.53;4.00;;;22.60;99.50;;;;;;5002786;28;20045;-58
2022/06/16 10:24:52;;;;;;;9.30;4.50;;;22.50;98.50;;;;;;5001330;28;20491;-58
2022/06/16 10:27:20;;;;;;;7.70;4.88;;;22.60;99.40;;;;;;5000214;28;20034;-57
2022/06/16 10:29:58;;;;;;;8.35;4.55;;;22.40;99.90;;;;;;5003966;28;20398;-59
2022/06/16 10:32:43;;;;;;;7.22;4.88;;;22.50;99.60;;;;;;4998005;28;20402;-65
2022/06/16 10:35:19;;;;;;;9.57;4.45;;;22.50;99.30;;;;;;5001751;28;20092;-66
2022/06/16 10:37:48;;;;;;;10.52;4.88;;;22.50;99.60;;;;;;5000155;28;20034;-66
2022/06/16 10:40:24;;;;;;;15.40;5.32;;;22.40;99.70;;;;;;4999088;28;20023;-63
2022/06/16 10:43:00;;;;;;;9.82;4.80;;;22.50;99.80;;;;;;5003119;28;20397;-63
2022/06/16 10:45:28;;;;;;;13.00;4.65;;;22.60;99.50;;;;;;5003338;28;20591;-61
2022/06/16 10:48:26;;;;;;;10.30;5.10;;;22.80;99.00;;;;;;5002749;28;20038;-61
2022/06/16 10:51:22;;;;;;;7.47;5.07;;;22.70;98.50;;;;;;5001889;28;20041;-62
2022/06/16 10:54:11;;;;;;;12.20;5.15;;;22.60;98.50;;;;;;5000643;28;20052;-61
2022/06/16 10:56:39;;;;;;;15.10;4.90;;;22.80;98.20;;;;;;5003681;28;20030;-55
2022/06/16 10:59:26;;;;;;;10.43;5.15;;;23.00;97.80;;;;;;5003571;28;20474;-62
2022/06/16 11:02:01;;;;;;;9.30;4.57;;;23.10;97.00;;;;;;4997031;28;20073;-62
2022/06/16 11:04:36;;;;;;;16.15;5.18;;;23.40;96.50;;;;;;5007233;28;20038;-62
2022/06/16 11:07:03;;;;;;;8.52;4.35;;;23.50;96.60;;;;;;4998352;28;20038;-62
2022/06/16 11:09:32;;;;;;;9.57;4.10;;;23.70;95.30;;;;;;5002770;28;20068;-62
2022/06/16 11:12:01;;;;;;;12.25;4.00;;;23.90;94.00;;;;;;5000931;28;20161;-62
2022/06/16 11:14:40;;;;;;;10.68;4.10;;;24.30;93.70;;;;;;5003182;28;20042;-62
2022/06/16 11:17:10;;;;;;;8.38;4.80;;;24.70;92.90;;;;;;4995952;28;20030;-63
2022/06/16 11:19:44;;;;;;;11.95;4.38;;;24.80;92.10;;;;;;5008043;28;20026;-63
2022/06/16 11:22:26;;;;;;;9.80;4.00;;;24.80;91.60;;;;;;5004702;28;20481;-61
2022/06/16 11:24:55;;;;;;;11.02;4.05;;;24.80;91.50;;;;;;5005008;28;20038;-66
2022/06/16 11:27:21;;;;;;;4.82;3.60;;;24.90;92.10;;;;;;4997647;28;20512;-62
2022/06/16 11:29:47;;;;;;;7.72;3.85;;;25.10;91.30;;;;;;5006259;28;20034;-61
2022/06/16 11:32:20;;;;;;;6.47;3.50;;;25.50;90.80;;;;;;5002237;28;20053;-63
2022/06/16 11:34:47;;;;;;;8.45;3.78;;;25.80;89.60;;;;;;5008291;28;20061;-62
2022/06/16 11:37:42;;;;;;;7.78;3.72;;;26.00;88.80;;;;;;5006625;28;20034;-62
2022/06/16 11:40:32;;;;;;;9.38;4.10;;;26.10;87.20;;;;;;5009162;28;20099;-62
2022/06/16 11:43:36;;;;;;;5.85;3.50;;;26.20;85.30;;;;;;5001115;28;20105;-62
2022/06/16 11:46:10;;;;;;;7.45;3.30;;;26.40;86.00;;;;;;5000032;28;20497;-62
2022/06/16 11:48:45;;;;;;;6.72;3.15;;;26.70;83.50;;;;;;5004145;28;20049;-63
2022/06/16 11:51:15;;;;;;;5.95;2.90;;;26.60;79.60;;;;;;5002396;28;20018;-62
2022/06/16 11:54:03;;;;;;;11.82;2.72;;;26.80;78.40;;;;;;5004579;28;20033;-62
2022/06/16 11:56:47;;;;;;;5.95;3.08;;;26.70;77.20;;;;;;5001656;28;20033;-62
2022/06/16 11:59:45;;;;;;;7.57;2.92;;;26.50;77.70;;;;;;5005974;28;20129;-62
2022/06/16 12:02:19;;;;;;;5.15;3.22;;;26.80;79.80;;;;;;5008336;28;20042;-62
2022/06/16 12:04:57;;;;;;;5.05;2.90;;;26.80;77.20;;;;;;5001951;28;20482;-62
2022/06/16 12:07:41;;;;;;;8.02;3.15;;;26.60;76.00;;;;;;5007229;28;20529;-62
2022/06/16 12:10:25;;;;;;;4.95;2.40;;;26.90;72.20;;;;;;5003102;28;20041;-61
2022/06/16 12:13:14;;;;;;;6.95;3.42;;;27.30;72.40;;;;;;5005819;28;20043;-62
2022/06/16 12:16:32;;;;;;;10.27;2.63;;;27.70;70.60;;;;;;5008876;28;20023;-62
2022/06/16 12:19:24;;;;;;;8.68;2.90;;;28.10;67.80;;;;;;4997746;28;20061;-62
2022/06/16 12:21:53;;;;;;;6.88;2.85;;;28.10;66.10;;;;;;4998483;28;20037;-62
2022/06/16 12:24:38;;;;;;;12.63;3.50;;;28.60;63.20;;;;;;5005256;28;20026;-61
2022/06/16 12:27:14;;;;;;;13.73;2.55;;;28.80;61.10;;;;;;4998214;28;20212;-63
2022/06/16 12:29:49;;;;;;;10.13;2.45;;;28.70;60.30;;;;;;5002401;28;20027;-62
2022/06/16 12:32:35;;;;;;;6.18;2.63;;;29.00;59.10;;;;;;5006735;28;20026;-62
2022/06/16 12:35:29;;;;;;;5.85;2.10;;;29.00;58.70;;;;;;5002979;28;20121;-61
2022/06/16 12:38:00;;;;;;;6.43;1.95;;;29.20;58.30;;;;;;5007192;28;20026;-62
2022/06/16 12:40:45;;;;;;;7.85;2.28;;;29.60;55.90;;;;;;5007313;28;20492;-62
2022/06/16 12:43:20;;;;;;;7.95;2.55;;;30.00;53.80;;;;;;5003353;28;20088;-62
2022/06/16 12:45:53;;;;;;;8.00;2.42;;;30.00;53.50;;;;;;5006655;28;20117;-62
2022/06/16 12:48:28;;;;;;;4.30;2.00;;;30.30;52.20;;;;;;5002061;28;20041;-62
2022/06/16 12:51:01;;;;;;;5.95;2.40;;;30.70;50.70;;;;;;5004215;28;20026;-62
2022/06/16 12:53:35;;;;;;;4.25;1.88;;;30.50;50.40;;;;;;5004692;28;20674;-62
2022/06/16 12:56:13;;;;;;;6.30;2.20;;;30.20;51.40;;;;;;5001666;28;20120;-62
2022/06/16 12:58:51;;;;;;;7.43;2.35;;;30.10;51.50;;;;;;5002810;28;20070;-62
2022/06/16 13:01:17;;;;;;;4.45;2.03;;;29.90;52.30;;;;;;4997718;28;20018;-61
2022/06/16 13:03:47;;;;;;;5.93;2.30;;;30.20;50.90;;;;;;4999590;28;20076;-61
2022/06/16 13:06:15;;;;;;;5.65;2.13;;;30.80;50.60;;;;;;5008240;28;20025;-61
2022/06/16 13:08:46;;;;;;;5.65;2.08;;;31.00;49.50;;;;;;5002166;28;20042;-62
2022/06/16 13:11:20;;;;;;;5.38;1.92;;;30.90;48.90;;;;;;5004789;28;20028;-61
2022/06/16 13:14:00;;;;;;;5.68;1.95;;;30.50;48.00;;;;;;5001307;28;20030;-61
2022/06/16 13:16:28;;;;;;;6.78;2.13;;;30.00;49.20;;;;;;5004391;28;20073;-63
2022/06/16 13:18:59;;;;;;;2.47;1.88;;;29.50;50.50;;;;;;5002256;28;20052;-62
2022/06/16 13:21:36;;;;;;;4.93;1.90;;;29.40;50.80;;;;;;5005731;28;20080;-62
2022/06/16 13:24:21;;;;;;;4.07;1.52;;;29.30;50.20;;;;;;5002354;28;20057;-62
2022/06/16 13:27:14;;;;;;;5.55;2.10;;;30.00;49.80;;;;;;5001883;28;20046;-62
2022/06/16 13:29:52;;;;;;;8.23;2.22;;;30.50;47.60;;;;;;5000115;28;20022;-62
2022/06/16 13:32:42;;;;;;;6.57;2.00;;;31.00;46.70;;;;;;5007569;28;20100;-61
2022/06/16 13:35:14;;;;;;;4.65;2.40;;;30.80;46.50;;;;;;5006784;28;20375;-63
2022/06/16 13:37:50;;;;;;;6.55;2.15;;;31.10;46.00;;;;;;5003062;28;20087;-63